CheckWX is a tool to help pilots better visualize weather data.  It is not intended as a substitute for an official pre-flight weather briefing.

12:41:38 UTC

KMQJ METAR
Indianapolis Regional Airport
Indianapolis, Indiana, USA
Current

27 mins ago

KMQJ 181215Z AUTO 27012KT 10SM OVC016 M02/M03 A3008 RMK AO1
Observed
Feb-18 @ 12:15 UTC
Wind
  • 270° at 12 KTS
Visibility
10 SM
Flight Rules
MVFR
Cloud Levels
  • Overcast at 1,600' AGL
Temperature
-2°C / 28°F
Dewpoint
-3°C / 27°F
Humidity
93%
Altimeter
30.08" Hg
Pressure
1018.62 hPa
Previous

46 mins ago

KMQJ 181156Z AUTO 27012G15KT 10SM OVC016 M02/M02 A3007 RMK AO1
Observed
Feb-18 @ 11:56 UTC
Wind
  • 270° at 12 KTS
  • Gusting to 15 KTS
Visibility
10 SM
Flight Rules
MVFR
Cloud Levels
  • Overcast at 1,600' AGL
Temperature
-2°C / 28°F
Dewpoint
-2°C / 28°F
Humidity
100%
Altimeter
30.07" Hg
Pressure
1018.32 hPa
Previous

1 hour ago

KMQJ 181136Z AUTO 28013KT 10SM OVC016 M02/M02 A3006 RMK AO1
Observed
Feb-18 @ 11:36 UTC
Wind
  • 280° at 13 KTS
Visibility
10 SM
Flight Rules
MVFR
Cloud Levels
  • Overcast at 1,600' AGL
Temperature
-2°C / 28°F
Dewpoint
-2°C / 28°F
Humidity
100%
Altimeter
30.06" Hg
Pressure
1017.92 hPa